Time;durP1;ratioP1;P1;durP2;ratioP2;P2;SDS_P1;SDS_P2;PMS_P1;PMS_P2;Temp;Humidity;BMP_temperature;BMP_pressure;BME280_temperature;BME280_humidity;BME280_pressure;Samples;Min_cycle;Max_cycle;Signal;HPM_P1;HPM_P2
2023/09/25 00:03:03;;;;;;;5.20;2.53;;;;;;;14.14;100.00;102017.78;10440983;28;20118;-65
2023/09/25 00:08:04;;;;;;;2.72;1.98;;;;;;;14.13;100.00;102016.09;10441620;28;20064;-65
2023/09/25 00:13:04;;;;;;;3.70;2.80;;;;;;;14.06;100.00;102012.44;10441811;28;20040;-66
2023/09/25 00:18:05;;;;;;;6.05;2.90;;;;;;;14.01;100.00;102022.22;10441005;28;20049;-66
2023/09/25 00:23:05;;;;;;;3.88;2.47;;;;;;;13.95;100.00;102018.44;10440416;28;20115;-65
2023/09/25 00:28:06;;;;;;;5.00;2.80;;;;;;;13.89;100.00;102011.03;10456589;28;20189;-66
2023/09/25 00:33:06;;;;;;;4.00;2.42;;;;;;;13.83;100.00;102003.63;10458537;28;20041;-66
2023/09/25 00:38:07;;;;;;;5.32;2.78;;;;;;;13.84;100.00;101992.53;10440193;28;20065;-66
2023/09/25 00:43:07;;;;;;;3.95;2.65;;;;;;;13.78;100.00;101993.28;10456819;28;20040;-66
2023/09/25 00:48:27;;;;;;;4.22;2.35;;;;;;;13.75;100.00;101992.81;10423716;28;20361;-66
2023/09/25 00:53:29;;;;;;;3.42;2.55;;;;;;;13.68;100.00;101993.59;10440310;28;20029;-66
2023/09/25 00:58:29;;;;;;;6.70;2.83;;;;;;;13.59;100.00;101992.03;10457030;28;20041;-66
2023/09/25 01:03:31;;;;;;;2.42;2.00;;;;;;;13.57;100.00;102004.16;10457247;28;20457;-67
2023/09/25 01:08:32;;;;;;;2.15;1.95;;;;;;;13.51;100.00;101992.13;10456596;28;20033;-67
2023/09/25 01:13:32;;;;;;;2.97;2.65;;;;;;;13.43;100.00;101997.69;10457510;28;20060;-67
2023/09/25 01:18:33;;;;;;;2.78;2.28;;;;;;;13.33;100.00;101987.09;10440763;28;20091;-66
2023/09/25 01:23:33;;;;;;;5.15;2.83;;;;;;;13.31;100.00;101996.50;10461901;28;20040;-65
2023/09/25 01:28:34;;;;;;;3.85;3.08;;;;;;;13.31;100.00;101980.16;10439830;28;20065;-66
2023/09/25 01:33:35;;;;;;;2.30;2.13;;;;;;;13.20;100.00;101989.59;10420681;28;20112;-66
2023/09/25 01:38:35;;;;;;;3.30;2.45;;;;;;;13.18;100.00;101984.38;10470651;28;20051;-65
2023/09/25 01:43:35;;;;;;;4.35;2.97;;;;;;;13.14;100.00;101980.31;10455230;28;20103;-64
2023/09/25 01:48:36;;;;;;;6.00;2.53;;;;;;;13.17;100.00;101985.38;10454480;28;20029;-67
2023/09/25 01:53:36;;;;;;;4.43;3.10;;;;;;;13.11;100.00;101985.28;10437432;28;20115;-66
2023/09/25 01:58:37;;;;;;;3.25;2.65;;;;;;;13.03;100.00;101972.63;10455489;28;20033;-66
2023/09/25 02:03:38;;;;;;;3.38;2.97;;;;;;;13.02;100.00;101973.69;10436708;28;20072;-66
2023/09/25 02:08:40;;;;;;;4.10;2.70;;;;;;;12.98;100.00;101969.63;10436297;28;20060;-66
2023/09/25 02:13:41;;;;;;;9.73;3.25;;;;;;;12.94;100.00;101952.84;10436598;28;20044;-67
2023/09/25 02:18:41;;;;;;;2.40;2.20;;;;;;;12.95;100.00;101945.53;10454618;28;20086;-67
2023/09/25 02:23:41;;;;;;;3.30;2.88;;;;;;;12.97;100.00;101948.91;10453709;28;20040;-67
2023/09/25 02:28:42;;;;;;;3.40;2.88;;;;;;;12.93;100.00;101950.31;10452968;28;20506;-66
2023/09/25 02:33:42;;;;;;;4.68;2.85;;;;;;;12.90;100.00;101951.53;10453998;28;20040;-67
2023/09/25 02:38:43;;;;;;;5.30;2.00;;;;;;;12.91;100.00;101941.50;10454113;28;20035;-66
2023/09/25 02:43:43;;;;;;;2.60;2.40;;;;;;;12.91;100.00;101936.06;10454626;28;20044;-66
2023/09/25 02:48:44;;;;;;;2.47;2.28;;;;;;;12.89;100.00;101943.56;10453997;28;20029;-66
2023/09/25 02:53:44;;;;;;;2.47;2.15;;;;;;;12.87;100.00;101941.03;10436062;28;20083;-66
2023/09/25 02:58:45;;;;;;;2.95;2.33;;;;;;;12.80;100.00;101935.50;10436616;28;20487;-66
2023/09/25 03:03:45;;;;;;;3.20;2.85;;;;;;;12.79;100.00;101933.84;10455458;28;20025;-66
2023/09/25 03:08:45;;;;;;;10.00;3.47;;;;;;;12.78;100.00;101926.69;10461767;28;20060;-66
2023/09/25 03:13:46;;;;;;;4.22;3.08;;;;;;;12.76;100.00;101928.78;10461076;28;20037;-66
2023/09/25 03:18:46;;;;;;;4.57;2.25;;;;;;;12.77;100.00;101938.59;10459819;28;20036;-66
2023/09/25 03:23:47;;;;;;;6.28;2.67;;;;;;;12.71;100.00;101944.78;10442785;28;20065;-67
2023/09/25 03:28:48;;;;;;;2.53;2.20;;;;;;;12.78;100.00;101943.00;10461157;28;20049;-66
2023/09/25 03:33:48;;;;;;;5.45;2.92;;;;;;;12.72;100.00;101941.03;10426636;28;20044;-67
2023/09/25 03:38:49;;;;;;;6.30;2.53;;;;;;;12.82;100.00;101939.91;10460699;28;20378;-66
2023/09/25 03:43:49;;;;;;;4.25;2.65;;;;;;;12.80;100.00;101945.53;10442191;28;20037;-66
2023/09/25 03:48:49;;;;;;;4.15;3.42;;;;;;;12.86;100.00;101952.09;10459851;28;20044;-65
2023/09/25 03:53:50;;;;;;;5.15;3.00;;;;;;;12.87;100.00;101959.22;10459817;28;20037;-65
2023/09/25 03:58:50;;;;;;;4.43;2.55;;;;;;;12.89;100.00;101965.31;10459788;28;20055;-67
2023/09/25 04:03:51;;;;;;;2.63;2.42;;;;;;;12.88;100.00;101971.78;10458905;28;20037;-66
2023/09/25 04:08:51;;;;;;;5.35;3.58;;;;;;;12.91;100.00;101976.84;10441782;28;20133;-66
2023/09/25 04:13:51;;;;;;;3.17;2.45;;;;;;;12.89;100.00;101968.91;10440828;28;20041;-66
2023/09/25 04:18:52;;;;;;;8.45;2.85;;;;;;;12.88;100.00;101964.47;10458533;28;20123;-65
2023/09/25 04:23:53;;;;;;;4.47;2.05;;;;;;;12.88;100.00;101959.03;10424816;28;20124;-65
2023/09/25 04:28:53;;;;;;;6.47;2.08;;;;;;;12.87;100.00;101960.06;10440103;28;20412;-67
2023/09/25 04:33:54;;;;;;;4.07;2.53;;;;;;;12.97;100.00;101970.66;10459134;28;20077;-67
2023/09/25 04:38:54;;;;;;;5.75;3.30;;;;;;;12.94;100.00;101971.03;10457938;28;20479;-67
2023/09/25 04:43:55;;;;;;;3.33;2.45;;;;;;;12.97;100.00;101962.50;10459217;28;20037;-67
2023/09/25 04:48:55;;;;;;;2.67;2.35;;;;;;;12.96;100.00;101977.97;10460335;28;20037;-64
2023/09/25 04:53:55;;;;;;;3.55;2.63;;;;;;;12.96;100.00;101977.16;10457410;28;20033;-66
2023/09/25 04:58:57;;;;;;;3.50;2.67;;;;;;;12.95;100.00;101976.28;10456992;28;20041;-67
2023/09/25 05:03:57;;;;;;;2.58;1.90;;;;;;;12.88;100.00;101974.50;10456693;28;20041;-67
2023/09/25 05:08:58;;;;;;;2.50;2.30;;;;;;;12.85;100.00;101975.72;10456286;28;20029;-65
2023/09/25 05:13:58;;;;;;;2.97;2.75;;;;;;;12.78;100.00;101972.91;10457041;28;20040;-66
2023/09/25 05:18:59;;;;;;;5.70;2.75;;;;;;;12.79;100.00;101976.44;10437443;28;20029;-66
2023/09/25 05:23:59;;;;;;;5.13;2.05;;;;;;;12.82;100.00;101997.81;10456472;28;20040;-66
2023/09/25 05:29:00;;;;;;;4.35;3.05;;;;;;;12.71;100.00;102001.00;10455342;28;20100;-67
2023/09/25 05:34:00;;;;;;;2.83;2.47;;;;;;;12.61;100.00;102011.31;10437708;28;20041;-66
2023/09/25 05:39:02;;;;;;;3.83;2.22;;;;;;;12.54;100.00;102009.31;10455365;28;20029;-67
2023/09/25 05:44:02;;;;;;;2.38;2.17;;;;;;;12.50;100.00;102007.97;10436597;28;20067;-66
2023/09/25 05:49:06;;;;;;;3.22;2.63;;;;;;;12.51;100.00;102006.97;10437400;28;20040;-65
2023/09/25 05:54:07;;;;;;;2.75;2.50;;;;;;;12.54;100.00;102012.03;10438227;28;20123;-65
2023/09/25 05:59:08;;;;;;;3.00;2.80;;;;;;;12.61;100.00;102000.44;10437932;28;20496;-65
2023/09/25 06:04:10;;;;;;;3.22;2.92;;;;;;;12.68;100.00;102007.66;10436333;28;20029;-67
2023/09/25 06:09:15;;;;;;;5.20;3.40;;;;;;;12.67;100.00;102000.53;10436387;28;20028;-66
2023/09/25 06:14:15;;;;;;;12.85;3.00;;;;;;;12.72;100.00;102013.56;10437742;28;20097;-66
2023/09/25 06:19:18;;;;;;;7.63;2.97;;;;;;;12.85;100.00;102016.50;10452435;28;20098;-67
2023/09/25 06:24:18;;;;;;;3.28;2.97;;;;;;;12.92;100.00;102020.19;10454530;28;20044;-66
2023/09/25 06:29:21;;;;;;;3.10;2.50;;;;;;;13.07;100.00;102027.50;10435838;28;20115;-65
2023/09/25 06:34:21;;;;;;;3.40;3.10;;;;;;;13.26;100.00;102035.97;10453238;28;20215;-66
2023/09/25 06:39:23;;;;;;;2.90;2.70;;;;;;;13.44;100.00;102040.19;10457478;28;20111;-66
2023/09/25 06:44:23;;;;;;;2.28;2.15;;;;;;;13.59;100.00;102037.44;10443786;28;20101;-66
2023/09/25 06:49:24;;;;;;;3.80;2.13;;;;;;;13.87;100.00;102032.13;10443009;28;20080;-66
2023/09/25 06:54:24;;;;;;;2.95;1.95;;;;;;;13.96;100.00;102033.72;10461067;28;20033;-66
2023/09/25 06:59:26;;;;;;;3.58;2.95;;;;;;;14.18;100.00;102037.31;10461445;28;20029;-66
2023/09/25 07:04:27;;;;;;;4.60;2.70;;;;;;;14.36;100.00;102047.78;10461364;28;20124;-67
2023/09/25 07:09:27;;;;;;;5.28;3.08;;;;;;;14.62;100.00;102034.41;10461881;28;20033;-66
2023/09/25 07:14:27;;;;;;;5.10;3.28;;;;;;;14.85;100.00;102044.25;10443593;28;20044;-66
2023/09/25 07:19:28;;;;;;;7.63;3.38;;;;;;;15.48;100.00;102041.50;10459030;28;20396;-67
2023/09/25 07:24:28;;;;;;;3.58;3.28;;;;;;;15.84;100.00;102037.69;10461373;28;20055;-66
2023/09/25 07:29:30;;;;;;;5.32;3.00;;;;;;;16.17;100.00;102027.69;10461020;28;20053;-65
2023/09/25 07:34:30;;;;;;;4.10;2.65;;;;;;;16.27;100.00;102024.56;10442467;28;20040;-67
2023/09/25 07:39:33;;;;;;;3.03;2.63;;;;;;;16.16;100.00;102026.00;10441710;28;20033;-65
2023/09/25 07:44:34;;;;;;;3.10;2.75;;;;;;;16.24;100.00;102014.91;10460973;28;20115;-66
2023/09/25 07:49:40;;;;;;;2.25;2.15;;;;;;;16.18;100.00;102014.91;10425468;28;20116;-67
2023/09/25 07:54:44;;;;;;;2.60;2.40;;;;;;;16.21;100.00;102017.22;10460352;28;20041;-67
2023/09/25 07:59:44;;;;;;;3.90;3.03;;;;;;;16.18;100.00;102014.91;10443125;28;20033;-65
2023/09/25 08:04:44;;;;;;;2.50;2.30;;;;;;;16.47;100.00;102021.88;10442316;28;20033;-66
2023/09/25 08:09:45;;;;;;;3.50;2.47;;;;;;;16.89;100.00;102030.72;10459018;28;20463;-66
2023/09/25 08:14:45;;;;;;;6.03;2.53;;;;;;;17.19;100.00;102025.63;10459510;28;20372;-67
2023/09/25 08:19:46;;;;;;;2.63;2.42;;;;;;;17.78;100.00;102030.09;10441632;28;20039;-67
2023/09/25 08:24:47;;;;;;;2.28;2.05;;;;;;;18.31;100.00;102037.16;10439701;28;20045;-66
2023/09/25 08:29:47;;;;;;;5.57;2.95;;;;;;;18.57;100.00;102041.63;10439489;28;20049;-66
2023/09/25 08:34:47;;;;;;;4.88;2.67;;;;;;;19.25;97.13;102036.16;10455582;28;20067;-67
2023/09/25 08:39:48;;;;;;;7.13;1.98;;;;;;;19.88;93.99;102036.94;10439813;28;20033;-65
2023/09/25 08:44:52;;;;;;;2.22;2.13;;;;;;;19.88;97.86;102040.50;10456027;28;20453;-68
2023/09/25 08:49:53;;;;;;;4.20;3.17;;;;;;;20.55;85.11;102045.03;10457977;28;20037;-67
2023/09/25 08:54:53;;;;;;;7.95;2.50;;;;;;;20.51;85.74;102041.06;10458173;28;20057;-66
2023/09/25 08:59:54;;;;;;;12.95;3.97;;;;;;;21.53;98.89;102054.53;10456825;28;20104;-68
2023/09/25 09:04:54;;;;;;;2.50;2.30;;;;;;;21.99;82.62;102050.81;10456370;28;20041;-67
2023/09/25 09:09:57;;;;;;;2.90;2.33;;;;;;;22.17;74.80;102052.56;10438733;28;20087;-66
2023/09/25 09:14:57;;;;;;;3.63;2.25;;;;;;;21.91;76.71;102047.63;10422419;28;20104;-66
2023/09/25 09:19:57;;;;;;;4.72;2.78;;;;;;;21.88;74.34;102046.19;10437837;28;20400;-66
2023/09/25 09:25:00;;;;;;;2.00;1.88;;;;;;;22.35;83.08;102046.00;10455049;28;20029;-67
2023/09/25 09:30:04;;;;;;;3.90;3.53;;;;;;;23.01;84.07;102038.00;10437229;28;20060;-66
2023/09/25 09:35:07;;;;;;;2.55;2.35;;;;;;;23.93;79.68;102060.53;10455206;28;20036;-67
2023/09/25 09:40:11;;;;;;;2.85;2.05;;;;;;;23.27;75.17;102064.09;10455198;28;20032;-68
2023/09/25 09:45:11;;;;;;;3.90;2.65;;;;;;;23.12;73.75;102061.09;10436939;28;20151;-66
2023/09/25 09:50:13;;;;;;;5.63;3.85;;;;;;;23.25;67.88;102054.38;10437265;28;20143;-66
2023/09/25 09:55:14;;;;;;;6.00;2.85;;;;;;;24.19;75.95;102058.91;10436638;28;20059;-66
2023/09/25 10:00:16;;;;;;;2.72;2.53;;;;;;;24.82;78.86;102055.34;10470986;28;20040;-66
2023/09/25 10:05:19;;;;;;;4.07;2.90;;;;;;;24.88;72.07;102061.75;10454277;28;20033;-67
2023/09/25 10:10:19;;;;;;;3.20;3.00;;;;;;;24.78;61.00;102050.59;10453362;28;20092;-66
2023/09/25 10:15:21;;;;;;;4.53;3.00;;;;;;;24.71;66.13;102052.75;10419248;28;20372;-67
2023/09/25 10:20:26;;;;;;;2.38;2.25;;;;;;;25.39;67.80;102044.63;10454075;28;20032;-66
2023/09/25 10:25:28;;;;;;;4.45;2.92;;;;;;;25.88;68.98;102055.44;10454732;28;20029;-66
2023/09/25 10:30:29;;;;;;;4.45;3.08;;;;;;;25.22;74.32;102051.22;10436162;28;20067;-66
2023/09/25 10:35:42;;;;;;;3.05;2.85;;;;;;;24.61;74.68;102050.75;10435618;28;20055;-66
2023/09/25 10:40:43;;;;;;;3.65;3.17;;;;;;;23.89;81.39;102058.28;10435178;28;20033;-67
2023/09/25 10:45:44;;;;;;;2.90;2.70;;;;;;;23.56;79.65;102067.53;10434642;28;20046;-66
2023/09/25 10:50:45;;;;;;;3.80;2.47;;;;;;;23.35;84.81;102063.63;10435028;28;20072;-66
2023/09/25 10:55:49;;;;;;;3.00;2.72;;;;;;;22.92;85.34;102062.44;10418827;28;20426;-67
2023/09/25 11:00:49;;;;;;;3.28;2.95;;;;;;;23.14;85.91;102075.50;10435515;28;20040;-67
2023/09/25 11:05:50;;;;;;;4.80;2.65;;;;;;;23.37;81.18;102072.53;10452500;28;20408;-66
2023/09/25 11:10:50;;;;;;;2.63;2.42;;;;;;;23.50;84.41;102073.25;10434541;28;20392;-67
2023/09/25 11:15:51;;;;;;;3.90;3.28;;;;;;;23.87;76.00;102079.84;10452455;28;20414;-67
2023/09/25 11:20:51;;;;;;;2.92;2.60;;;;;;;23.60;81.86;102099.09;10434618;28;20121;-67
2023/09/25 11:25:52;;;;;;;5.20;2.75;;;;;;;23.46;83.16;102099.75;10456696;28;20492;-67
2023/09/25 11:30:53;;;;;;;10.80;4.07;;;;;;;23.21;83.52;102095.50;10459246;28;20124;-67
2023/09/25 11:35:54;;;;;;;5.25;2.85;;;;;;;23.30;87.09;102096.75;10443329;28;20171;-67
2023/09/25 11:40:54;;;;;;;3.47;3.17;;;;;;;23.29;89.23;102106.09;10462373;28;20458;-67
2023/09/25 11:45:55;;;;;;;9.63;4.25;;;;;;;23.42;86.56;102096.63;10443743;28;20037;-67
2023/09/25 11:50:56;;;;;;;8.38;3.40;;;;;;;23.28;84.91;102114.66;10444254;28;20045;-66
2023/09/25 11:55:56;;;;;;;5.70;3.42;;;;;;;22.86;84.00;102117.84;10461358;28;20437;-68
2023/09/25 12:00:57;;;;;;;8.43;3.75;;;;;;;22.37;83.01;102118.34;10442752;28;20037;-67
2023/09/25 12:05:57;;;;;;;8.05;3.63;;;;;;;22.28;84.68;102119.84;10443003;28;20465;-66
2023/09/25 12:10:58;;;;;;;7.55;3.38;;;;;;;22.47;86.39;102112.19;10442845;28;20033;-66
2023/09/25 12:15:58;;;;;;;4.57;3.30;;;;;;;22.36;87.02;102122.19;10460337;28;20045;-67
2023/09/25 12:20:58;;;;;;;4.63;3.15;;;;;;;22.79;89.72;102117.19;10426366;28;20043;-66
2023/09/25 12:25:59;;;;;;;3.22;3.03;;;;;;;22.45;85.33;102133.66;10425349;28;20040;-65
2023/09/25 12:30:59;;;;;;;6.75;3.83;;;;;;;22.05;88.26;102134.53;10439680;28;20056;-66
2023/09/25 12:35:59;;;;;;;4.65;2.92;;;;;;;21.96;92.33;102128.53;10457126;28;20032;-67
2023/09/25 12:41:00;;;;;;;13.30;3.50;;;;;;;21.99;91.64;102130.81;10440636;28;20460;-66
2023/09/25 12:46:00;;;;;;;5.07;3.72;;;;;;;22.17;94.04;102127.06;10457945;28;20147;-68
2023/09/25 12:51:01;;;;;;;7.38;3.63;;;;;;;22.18;92.91;102130.69;10439474;28;20037;-68
2023/09/25 12:56:01;;;;;;;3.72;3.38;;;;;;;22.23;91.48;102119.72;10439904;28;20041;-67
2023/09/25 13:01:02;;;;;;;5.72;3.97;;;;;;;22.18;92.37;102119.63;10439438;28;20115;-67
2023/09/25 13:06:03;;;;;;;4.30;3.05;;;;;;;21.97;94.23;102121.09;10439718;28;20036;-66
2023/09/25 13:11:03;;;;;;;6.90;3.42;;;;;;;21.85;95.88;102128.56;10441371;28;20085;-66
2023/09/25 13:16:04;;;;;;;18.67;3.85;;;;;;;21.59;97.86;102120.56;10457486;28;20458;-67
2023/09/25 13:21:04;;;;;;;17.35;4.13;;;;;;;21.42;99.56;102122.41;10440357;28;20182;-66
2023/09/25 13:26:05;;;;;;;4.47;3.08;;;;;;;21.44;100.00;102128.50;10457437;28;20036;-67
2023/09/25 13:31:05;;;;;;;8.93;4.18;;;;;;;21.49;100.00;102125.84;10455179;28;20053;-68
2023/09/25 13:36:05;;;;;;;7.55;3.28;;;;;;;21.46;100.00;102120.00;10455598;28;20037;-66
2023/09/25 13:41:06;;;;;;;4.53;2.40;;;;;;;21.40;100.00;102129.22;10456079;28;20159;-67
2023/09/25 13:46:06;;;;;;;6.32;3.05;;;;;;;21.33;100.00;102132.06;10454511;28;20032;-67
2023/09/25 13:51:07;;;;;;;6.78;3.53;;;;;;;21.24;100.00;102136.25;10437349;28;20368;-67
2023/09/25 13:56:07;;;;;;;9.15;3.55;;;;;;;21.27;100.00;102120.06;10453872;28;20044;-66
2023/09/25 14:01:08;;;;;;;4.60;3.05;;;;;;;21.19;100.00;102125.13;10454840;28;20081;-67
2023/09/25 14:06:08;;;;;;;5.47;3.65;;;;;;;21.26;100.00;102112.91;10453628;28;20051;-68
2023/09/25 14:11:08;;;;;;;5.40;2.72;;;;;;;21.12;100.00;102117.81;10437868;28;20029;-66
2023/09/25 14:16:10;;;;;;;6.78;3.85;;;;;;;21.04;100.00;102120.06;10452677;28;20123;-66
2023/09/25 14:21:11;;;;;;;2.85;2.65;;;;;;;21.23;100.00;102124.41;10454866;28;20045;-67
2023/09/25 14:26:11;;;;;;;2.97;2.70;;;;;;;21.23;100.00;102121.66;10436381;28;20389;-66
2023/09/25 14:31:12;;;;;;;9.25;5.25;;;;;;;21.08;100.00;102116.59;10454274;28;20088;-67
2023/09/25 14:36:12;;;;;;;6.53;4.22;;;;;;;21.21;100.00;102114.69;10436316;28;20388;-67
2023/09/25 14:41:13;;;;;;;4.93;2.88;;;;;;;21.36;100.00;102120.59;10470526;28;20132;-67
2023/09/25 14:46:14;;;;;;;6.45;4.05;;;;;;;21.67;100.00;102115.78;10454548;28;20146;-66
2023/09/25 14:51:14;;;;;;;5.90;3.58;;;;;;;21.62;100.00;102121.19;10452820;28;20423;-67
2023/09/25 14:56:14;;;;;;;4.68;3.40;;;;;;;21.70;100.00;102124.41;10453245;28;20063;-66
2023/09/25 15:01:15;;;;;;;9.07;3.15;;;;;;;21.55;100.00;102122.13;10458190;28;20124;-67
2023/09/25 15:06:15;;;;;;;2.95;2.75;;;;;;;21.48;100.00;102120.59;10443332;28;20071;-67
2023/09/25 15:11:16;;;;;;;3.20;2.72;;;;;;;21.44;100.00;102116.63;10460115;28;20350;-67
2023/09/25 15:16:16;;;;;;;4.85;3.88;;;;;;;21.11;100.00;102118.88;10459915;28;20041;-66
2023/09/25 15:21:17;;;;;;;11.45;4.70;;;;;;;21.19;100.00;102122.38;10461376;28;20040;-67
2023/09/25 15:26:17;;;;;;;4.75;3.40;;;;;;;21.27;100.00;102130.25;10441992;28;20044;-67
2023/09/25 15:31:18;;;;;;;5.10;3.53;;;;;;;21.17;100.00;102127.28;10460248;28;20057;-67
2023/09/25 15:36:18;;;;;;;4.07;3.28;;;;;;;21.11;100.00;102134.56;10460377;28;20042;-65
2023/09/25 15:41:19;;;;;;;7.57;4.15;;;;;;;21.19;100.00;102133.38;10459963;28;20032;-67
2023/09/25 15:46:21;;;;;;;11.32;4.57;;;;;;;21.02;100.00;102125.81;10441632;28;20377;-67
2023/09/25 15:51:22;;;;;;;7.28;3.70;;;;;;;21.07;100.00;102136.13;10459234;28;20040;-67
2023/09/25 15:56:22;;;;;;;5.35;3.80;;;;;;;20.94;100.00;102131.69;10459951;28;20029;-65
2023/09/25 16:01:22;;;;;;;3.50;3.17;;;;;;;20.78;100.00;102127.69;10441774;28;20197;-66
2023/09/25 16:06:23;;;;;;;4.00;3.08;;;;;;;20.44;100.00;102132.81;10459069;28;20029;-66
2023/09/25 16:11:23;;;;;;;9.75;3.10;;;;;;;20.27;100.00;102140.03;10459552;28;20053;-66
2023/09/25 16:16:24;;;;;;;4.82;3.15;;;;;;;20.05;100.00;102142.44;10458669;28;20033;-66
2023/09/25 16:21:24;;;;;;;3.85;3.13;;;;;;;19.88;100.00;102149.66;10440694;28;20051;-67
2023/09/25 16:26:24;;;;;;;2.40;2.20;;;;;;;19.67;100.00;102150.91;10459266;28;20110;-67
2023/09/25 16:31:25;;;;;;;6.55;3.78;;;;;;;19.48;100.00;102155.50;10458411;28;20139;-66
2023/09/25 16:36:25;;;;;;;2.70;2.50;;;;;;;19.26;100.00;102153.16;10440396;28;20480;-66
2023/09/25 16:41:27;;;;;;;5.78;2.83;;;;;;;19.10;100.00;102158.41;10457193;28;20116;-67
2023/09/25 16:46:27;;;;;;;7.15;3.60;;;;;;;18.95;100.00;102154.09;10439834;28;20033;-67
2023/09/25 16:51:28;;;;;;;3.65;3.13;;;;;;;18.83;100.00;102174.25;10458361;28;20043;-67
2023/09/25 16:56:28;;;;;;;6.70;3.17;;;;;;;18.70;100.00;102158.66;10442319;28;20473;-67
2023/09/25 17:01:29;;;;;;;12.93;2.80;;;;;;;18.58;100.00;102170.34;10460310;28;20037;-67
2023/09/25 17:06:30;;;;;;;4.20;2.78;;;;;;;18.46;100.00;102165.75;10458103;28;20123;-67
2023/09/25 17:11:33;;;;;;;5.03;3.88;;;;;;;18.30;100.00;102176.16;10439638;28;20191;-65
2023/09/25 17:16:34;;;;;;;6.00;3.85;;;;;;;18.16;100.00;102179.19;10439517;28;20376;-66
2023/09/25 17:21:35;;;;;;;5.47;3.13;;;;;;;18.02;100.00;102178.38;10455296;28;20079;-66
2023/09/25 17:26:35;;;;;;;2.97;2.78;;;;;;;17.89;100.00;102174.63;10456302;28;20174;-67
2023/09/25 17:31:35;;;;;;;4.50;3.72;;;;;;;17.71;100.00;102174.44;10422186;28;20079;-67
2023/09/25 17:36:36;;;;;;;5.90;3.75;;;;;;;17.66;100.00;102168.75;10455136;28;20076;-67
2023/09/25 17:41:36;;;;;;;7.85;4.13;;;;;;;17.55;100.00;102170.25;10455901;28;20346;-67
2023/09/25 17:46:37;;;;;;;4.00;3.60;;;;;;;17.41;100.00;102171.31;10437275;28;20247;-67
2023/09/25 17:51:37;;;;;;;7.85;3.47;;;;;;;17.31;100.00;102174.47;10437385;28;20453;-67
2023/09/25 17:56:39;;;;;;;4.10;3.78;;;;;;;17.27;100.00;102177.88;10455739;28;20039;-67
2023/09/25 18:01:40;;;;;;;8.60;3.40;;;;;;;17.11;100.00;102171.75;10437204;28;20051;-67
2023/09/25 18:06:42;;;;;;;6.57;3.63;;;;;;;17.01;100.00;102178.69;10455472;28;20488;-67
2023/09/25 18:11:42;;;;;;;9.27;4.00;;;;;;;16.95;100.00;102180.38;10438650;28;20098;-67
2023/09/25 18:16:42;;;;;;;4.70;4.15;;;;;;;16.81;100.00;102187.69;10437849;28;20409;-66
2023/09/25 18:21:43;;;;;;;7.22;4.50;;;;;;;16.69;100.00;102189.34;10456075;28;20045;-66
2023/09/25 18:26:44;;;;;;;5.05;3.55;;;;;;;16.64;100.00;102183.66;10437371;28;20029;-67
2023/09/25 18:31:45;;;;;;;11.95;3.63;;;;;;;16.57;100.00;102189.09;10454902;28;20154;-67
2023/09/25 18:36:46;;;;;;;4.43;4.03;;;;;;;16.50;100.00;102185.50;10453819;28;20033;-66
2023/09/25 18:41:46;;;;;;;5.78;4.32;;;;;;;16.36;100.00;102176.41;10452252;28;20147;-67
2023/09/25 18:46:47;;;;;;;4.15;3.03;;;;;;;16.32;100.00;102177.88;10453533;28;20120;-66
2023/09/25 18:51:48;;;;;;;9.35;4.20;;;;;;;16.25;100.00;102182.47;10419291;28;20369;-64
2023/09/25 18:56:50;;;;;;;7.05;3.28;;;;;;;16.10;100.00;102177.13;10453602;28;20061;-64
2023/09/25 19:01:51;;;;;;;7.18;5.35;;;;;;;16.04;100.00;102181.50;10436387;28;20461;-65
2023/09/25 19:06:51;;;;;;;11.45;4.53;;;;;;;16.03;100.00;102179.84;10435376;28;20033;-68
2023/09/25 19:11:52;;;;;;;10.05;4.65;;;;;;;16.11;100.00;102177.97;10454167;28;20032;-66
2023/09/25 19:16:52;;;;;;;7.72;5.07;;;;;;;16.10;100.00;102184.50;10452637;28;20108;-66
2023/09/25 19:21:53;;;;;;;6.35;4.95;;;;;;;16.02;100.00;102172.69;10452811;28;20428;-66
2023/09/25 19:26:53;;;;;;;5.25;4.38;;;;;;;16.07;100.00;102185.72;10452838;28;20029;-68
2023/09/25 19:31:53;;;;;;;9.05;4.63;;;;;;;15.98;100.00;102187.78;10435694;28;20127;-68
2023/09/25 19:36:54;;;;;;;5.05;4.35;;;;;;;15.94;100.00;102182.94;10436678;28;20041;-68
2023/09/25 19:41:54;;;;;;;8.18;4.50;;;;;;;15.85;100.00;102179.53;10453725;28;20123;-67
2023/09/25 19:46:55;;;;;;;9.35;4.85;;;;;;;15.85;100.00;102187.72;10456305;28;20587;-66
2023/09/25 19:51:55;;;;;;;5.75;4.00;;;;;;;15.80;100.00;102191.06;10459262;28;20047;-66
2023/09/25 19:56:58;;;;;;;10.25;6.15;;;;;;;15.83;100.00;102199.91;10460244;28;20029;-67
2023/09/25 20:01:59;;;;;;;11.68;4.88;;;;;;;15.79;100.00;102199.44;10441642;28;20033;-67
2023/09/25 20:07:00;;;;;;;9.73;5.15;;;;;;;15.76;100.00;102194.38;10442590;28;20032;-66
2023/09/25 20:12:00;;;;;;;5.95;5.40;;;;;;;15.75;100.00;102196.28;10459309;28;20444;-66
2023/09/25 20:17:00;;;;;;;8.52;4.65;;;;;;;15.73;100.00;102200.25;10459247;28;20044;-66
2023/09/25 20:22:01;;;;;;;6.15;4.07;;;;;;;15.72;100.00;102198.56;10459474;28;20413;-66
2023/09/25 20:27:01;;;;;;;8.52;6.70;;;;;;;15.66;100.00;102202.06;10458675;28;20025;-66
2023/09/25 20:32:02;;;;;;;8.02;5.20;;;;;;;15.56;100.00;102207.88;10439943;28;20057;-66
2023/09/25 20:37:02;;;;;;;10.15;5.30;;;;;;;15.41;100.00;102207.97;10457414;28;20053;-67
2023/09/25 20:42:03;;;;;;;6.53;4.50;;;;;;;15.33;100.00;102208.13;10441066;28;20068;-67
2023/09/25 20:47:03;;;;;;;14.00;5.75;;;;;;;15.28;100.00;102200.53;10440101;28;20060;-65
2023/09/25 20:52:04;;;;;;;11.35;6.03;;;;;;;15.14;100.00;102208.78;10457141;28;20404;-67
2023/09/25 20:57:04;;;;;;;6.82;4.78;;;;;;;15.10;100.00;102214.63;10458129;28;20449;-65
2023/09/25 21:02:05;;;;;;;7.70;5.45;;;;;;;15.10;100.00;102211.91;10456743;28;20048;-66
2023/09/25 21:07:05;;;;;;;9.27;5.80;;;;;;;15.10;100.00;102201.00;10456559;28;20057;-66
2023/09/25 21:12:06;;;;;;;5.78;5.18;;;;;;;15.11;100.00;102207.28;10457206;28;20542;-65
2023/09/25 21:17:07;;;;;;;12.77;5.75;;;;;;;15.06;100.00;102209.75;10422244;28;20124;-65
2023/09/25 21:22:07;;;;;;;12.43;6.18;;;;;;;14.99;100.00;102204.22;10456705;28;20123;-66
2023/09/25 21:27:07;;;;;;;5.45;4.85;;;;;;;14.91;100.00;102196.19;10438099;28;20411;-66
2023/09/25 21:32:08;;;;;;;8.32;4.63;;;;;;;14.87;100.00;102198.47;10454092;28;20457;-67
2023/09/25 21:37:08;;;;;;;7.63;5.13;;;;;;;14.88;100.00;102207.50;10457651;28;20029;-65
2023/09/25 21:42:09;;;;;;;7.88;4.70;;;;;;;14.88;100.00;102207.50;10455814;28;20469;-66
2023/09/25 21:47:09;;;;;;;17.15;5.90;;;;;;;14.84;100.00;102200.75;10455910;28;20036;-66
2023/09/25 21:52:10;;;;;;;9.65;4.93;;;;;;;14.82;100.00;102203.66;10455334;28;20121;-66
2023/09/25 21:57:10;;;;;;;6.28;5.60;;;;;;;14.82;100.00;102197.34;10437364;28;20575;-65
2023/09/25 22:02:10;;;;;;;12.25;6.75;;;;;;;14.86;100.00;102193.19;10455094;28;20036;-67
2023/09/25 22:07:11;;;;;;;7.72;6.03;;;;;;;14.89;100.00;102199.09;10454061;28;20040;-67
2023/09/25 22:12:11;;;;;;;6.95;6.25;;;;;;;14.90;100.00;102194.50;10454329;28;20037;-66
2023/09/25 22:17:12;;;;;;;8.35;6.93;;;;;;;14.88;100.00;102180.22;10454706;28;20074;-67
2023/09/25 22:22:12;;;;;;;10.73;6.80;;;;;;;14.82;100.00;102165.47;10436494;28;20036;-66
2023/09/25 22:27:12;;;;;;;10.07;7.25;;;;;;;14.87;100.00;102178.53;10436077;28;20033;-65
2023/09/25 22:32:13;;;;;;;9.15;6.30;;;;;;;14.90;100.00;102183.59;10454594;28;20057;-67
2023/09/25 22:37:14;;;;;;;11.05;6.25;;;;;;;14.94;100.00;102187.63;10452861;28;20098;-67
2023/09/25 22:42:14;;;;;;;6.85;5.45;;;;;;;14.92;100.00;102186.97;10454190;28;20087;-67
2023/09/25 22:47:15;;;;;;;11.48;7.28;;;;;;;14.96;100.00;102169.16;10436145;28;20083;-67